createdAt,value
2019-03-17T00:00:46.187Z,4.64
2019-03-17T00:03:54.869Z,4.62
2019-03-17T00:07:02.034Z,4.56
2019-03-17T00:10:09.868Z,4.54
2019-03-17T00:13:17.922Z,4.63
2019-03-17T00:16:25.309Z,4.54
2019-03-17T00:19:32.549Z,4.41
2019-03-17T00:22:40.054Z,4.53
2019-03-17T00:25:47.325Z,4.41
2019-03-17T00:28:54.600Z,4.44
2019-03-17T00:32:03.795Z,4.46
2019-03-17T00:35:11.235Z,4.59
2019-03-17T00:38:18.503Z,4.60
2019-03-17T00:41:26.453Z,4.45
2019-03-17T00:44:34.314Z,4.46
2019-03-17T00:47:41.586Z,4.53
2019-03-17T00:50:49.159Z,4.55
2019-03-17T00:53:56.755Z,4.39
2019-03-17T00:57:04.149Z,4.35
2019-03-17T01:00:12.124Z,4.38
2019-03-17T01:03:19.488Z,4.24
2019-03-17T01:06:27.583Z,4.37
2019-03-17T01:09:35.608Z,4.40
2019-03-17T01:12:44.875Z,4.19
2019-03-17T01:15:52.212Z,4.30
2019-03-17T01:18:59.476Z,4.29
2019-03-17T01:22:06.739Z,4.23
2019-03-17T01:25:14.692Z,4.21
2019-03-17T01:28:21.834Z,4.25
2019-03-17T01:31:29.117Z,4.17
2019-03-17T01:34:36.690Z,4.13
2019-03-17T01:37:44.500Z,4.14
2019-03-17T01:40:52.052Z,4.27
2019-03-17T01:44:00.473Z,4.24
2019-03-17T01:47:07.732Z,4.42
2019-03-17T01:50:15.165Z,4.51
2019-03-17T01:53:23.491Z,4.59
2019-03-17T01:56:31.270Z,4.70
2019-03-17T01:59:38.985Z,4.64
2019-03-17T02:02:46.152Z,4.50
2019-03-17T02:05:55.253Z,4.61
2019-03-17T02:09:04.837Z,4.59
2019-03-17T02:12:11.993Z,4.66
2019-03-17T02:15:19.616Z,4.75
2019-03-17T02:18:27.032Z,5.00
2019-03-17T02:21:34.557Z,5.15
2019-03-17T02:24:42.110Z,5.04
2019-03-17T02:27:49.511Z,4.96
2019-03-17T02:30:56.682Z,4.71
2019-03-17T02:34:03.959Z,4.60
2019-03-17T02:37:11.644Z,4.54
2019-03-17T02:40:19.612Z,4.48
2019-03-17T02:43:28.222Z,4.37
2019-03-17T02:46:35.617Z,4.36
2019-03-17T02:49:44.137Z,4.48
2019-03-17T02:52:51.778Z,4.55
2019-03-17T02:55:59.274Z,4.44
2019-03-17T02:59:07.559Z,4.23
2019-03-17T03:02:15.143Z,4.10
2019-03-17T03:05:22.668Z,3.98
2019-03-17T03:08:30.017Z,3.91
2019-03-17T03:11:37.272Z,3.67
2019-03-17T03:14:44.461Z,3.63
2019-03-17T03:17:51.882Z,3.45
2019-03-17T03:20:59.426Z,3.45
2019-03-17T03:24:06.579Z,3.47
2019-03-17T03:27:13.982Z,3.37
2019-03-17T03:30:21.507Z,3.48
2019-03-17T03:33:29.850Z,3.41
2019-03-17T03:36:37.214Z,3.86
2019-03-17T03:39:45.519Z,3.93
2019-03-17T03:42:53.448Z,3.96
2019-03-17T03:46:00.712Z,3.97
2019-03-17T03:49:08.514Z,4.06
2019-03-17T03:52:16.738Z,4.12
2019-03-17T03:55:24.162Z,4.26
2019-03-17T03:58:32.131Z,4.19
2019-03-17T04:01:39.640Z,4.33
2019-03-17T04:04:47.419Z,4.13
2019-03-17T04:07:55.054Z,4.35
2019-03-17T04:11:02.893Z,4.52
2019-03-17T04:14:10.343Z,4.44
2019-03-17T04:17:17.813Z,4.47
2019-03-17T04:20:25.556Z,4.45
2019-03-17T04:23:33.485Z,4.31
2019-03-17T04:26:41.365Z,4.23
2019-03-17T04:29:49.169Z,4.34
2019-03-17T04:32:56.327Z,4.35
2019-03-17T04:36:03.686Z,4.62
2019-03-17T04:39:11.828Z,4.64
2019-03-17T04:42:19.306Z,4.63
2019-03-17T04:45:26.452Z,4.48
2019-03-17T04:48:34.205Z,4.61
2019-03-17T04:51:41.375Z,4.45
2019-03-17T04:54:48.733Z,4.54
2019-03-17T04:57:56.081Z,4.32
2019-03-17T05:01:03.621Z,4.34
2019-03-17T05:04:10.881Z,4.43
2019-03-17T05:07:18.073Z,4.41
2019-03-17T05:10:25.782Z,4.43
2019-03-17T05:13:32.934Z,4.55
2019-03-17T05:16:40.299Z,4.55
2019-03-17T05:19:48.215Z,4.45
2019-03-17T05:22:55.669Z,4.58
2019-03-17T05:26:03.395Z,4.54
2019-03-17T05:29:10.592Z,4.52
2019-03-17T05:32:18.440Z,4.48
2019-03-17T05:35:25.635Z,4.61
2019-03-17T05:38:33.551Z,4.65
2019-03-17T05:41:43.379Z,4.92
2019-03-17T05:44:51.335Z,5.31
2019-03-17T05:47:59.908Z,5.25
2019-03-17T05:51:08.235Z,5.36
2019-03-17T05:54:16.178Z,5.50
2019-03-17T05:57:23.676Z,5.74
2019-03-17T06:00:31.020Z,5.72
2019-03-17T06:03:38.519Z,5.87
2019-03-17T06:06:46.678Z,5.94
2019-03-17T06:09:54.661Z,6.21
2019-03-17T06:16:13.943Z,6.60
2019-03-17T06:19:21.363Z,7.02
2019-03-17T06:22:29.938Z,7.11
2019-03-17T06:25:37.806Z,7.20
2019-03-17T06:28:45.860Z,7.55
2019-03-17T06:31:53.416Z,7.64
2019-03-17T06:35:00.885Z,8.00
2019-03-17T06:38:08.189Z,8.41
2019-03-17T06:41:16.110Z,8.42
2019-03-17T06:44:24.229Z,8.53
2019-03-17T06:47:32.761Z,8.64
2019-03-17T06:50:40.634Z,8.71
2019-03-17T06:53:56.179Z,8.89
2019-03-17T06:56:57.614Z,9.16
2019-03-17T07:00:05.777Z,9.43
2019-03-17T07:03:13.564Z,9.68
2019-03-17T07:06:20.753Z,10.19
2019-03-17T07:09:28.391Z,10.57
2019-03-17T07:12:35.843Z,10.84
2019-03-17T07:15:43.493Z,11.12
2019-03-17T07:18:52.331Z,11.46
2019-03-17T07:22:00.246Z,11.74
2019-03-17T07:25:08.038Z,12.07
2019-03-17T07:28:15.745Z,12.51
2019-03-17T07:31:23.272Z,13.27
2019-03-17T07:34:31.140Z,13.86
2019-03-17T07:37:38.677Z,14.23
2019-03-17T07:40:45.862Z,14.67
2019-03-17T07:43:53.570Z,15.21
2019-03-17T07:47:01.198Z,15.35
2019-03-17T07:50:09.528Z,15.36
2019-03-17T07:53:16.713Z,15.45
2019-03-17T07:56:24.908Z,15.75
2019-03-17T07:59:32.306Z,15.80
2019-03-17T08:02:39.976Z,15.94
2019-03-17T08:05:47.371Z,16.23
2019-03-17T08:08:54.908Z,16.08
2019-03-17T08:12:02.731Z,16.21
2019-03-17T08:15:10.378Z,16.39
2019-03-17T08:18:18.297Z,16.70
2019-03-17T08:21:26.255Z,16.90
2019-03-17T08:24:33.614Z,16.73
2019-03-17T08:27:41.695Z,16.68
2019-03-17T08:30:53.413Z,16.51
2019-03-17T08:33:58.738Z,16.59
2019-03-17T08:37:06.497Z,16.71
2019-03-17T08:40:14.157Z,16.74
2019-03-17T08:43:22.492Z,16.67
2019-03-17T08:46:30.414Z,16.89
2019-03-17T08:49:38.499Z,16.64
2019-03-17T08:52:47.411Z,16.88
2019-03-17T08:55:55.300Z,16.86
2019-03-17T08:59:03.202Z,16.98
2019-03-17T09:02:11.471Z,16.73
2019-03-17T09:05:18.951Z,16.79
2019-03-17T09:08:35.015Z,17.17
2019-03-17T09:11:37.244Z,17.22
2019-03-17T09:14:45.120Z,17.23
2019-03-17T09:17:53.672Z,17.75
2019-03-17T09:21:00.848Z,17.81
2019-03-17T09:24:17.055Z,17.69
2019-03-17T09:27:19.389Z,17.64
2019-03-17T09:30:27.396Z,17.78
2019-03-17T09:33:35.604Z,17.78
2019-03-17T09:36:43.729Z,18.01
2019-03-17T09:39:51.075Z,18.11
2019-03-17T09:42:58.685Z,18.37
2019-03-17T09:46:06.624Z,18.65
2019-03-17T09:49:14.424Z,18.82
2019-03-17T09:52:22.747Z,18.83
2019-03-17T09:55:30.938Z,18.91
2019-03-17T09:58:38.346Z,18.83
2019-03-17T10:01:46.394Z,19.10
2019-03-17T10:04:54.160Z,19.04
2019-03-17T10:08:01.659Z,19.26
2019-03-17T10:11:10.792Z,18.98
2019-03-17T10:14:19.082Z,19.10
2019-03-17T10:17:27.019Z,19.17
2019-03-17T10:20:34.658Z,18.91
2019-03-17T10:23:42.489Z,19.06
2019-03-17T10:26:50.225Z,19.17
2019-03-17T10:29:57.482Z,19.52
2019-03-17T10:33:04.907Z,19.42
2019-03-17T10:36:12.472Z,19.59
2019-03-17T10:39:20.604Z,19.40
2019-03-17T10:42:27.970Z,19.56
2019-03-17T10:45:35.880Z,19.55
2019-03-17T10:48:43.345Z,19.60
2019-03-17T10:51:50.610Z,19.33
2019-03-17T10:54:59.333Z,19.51
2019-03-17T10:58:06.982Z,19.66
2019-03-17T11:01:16.005Z,19.51
2019-03-17T11:04:23.882Z,18.98
2019-03-17T11:07:31.266Z,19.20
2019-03-17T11:10:39.857Z,19.17
2019-03-17T11:13:47.751Z,19.18
2019-03-17T11:16:55.444Z,19.34
2019-03-17T11:20:04.250Z,19.37
2019-03-17T11:23:12.910Z,19.45
2019-03-17T11:26:21.342Z,19.36
2019-03-17T11:29:28.907Z,19.51
2019-03-17T11:32:36.822Z,19.81
2019-03-17T11:35:44.269Z,19.44
2019-03-17T11:38:52.588Z,19.37
2019-03-17T11:42:00.928Z,19.41
2019-03-17T11:45:11.006Z,19.56
2019-03-17T11:48:18.508Z,19.70
2019-03-17T11:51:26.559Z,19.14
2019-03-17T11:54:34.319Z,19.06
2019-03-17T11:57:42.694Z,19.09
2019-03-17T12:00:50.189Z,18.52
2019-03-17T12:03:57.728Z,18.23
2019-03-17T12:07:05.407Z,18.32
2019-03-17T12:10:13.847Z,18.41
2019-03-17T12:13:21.763Z,18.17
2019-03-17T12:16:29.564Z,18.28
2019-03-17T12:19:37.537Z,18.43
2019-03-17T12:22:45.009Z,18.40
2019-03-17T12:25:52.908Z,18.51
2019-03-17T12:29:00.556Z,18.33
2019-03-17T12:32:08.357Z,18.44
2019-03-17T12:35:15.689Z,18.51
2019-03-17T12:38:23.276Z,18.63
2019-03-17T12:41:31.531Z,18.70
2019-03-17T12:44:39.005Z,18.40
2019-03-17T12:47:47.400Z,18.03
2019-03-17T12:50:55.182Z,18.23
2019-03-17T12:54:03.001Z,18.09
2019-03-17T12:57:10.803Z,18.14
2019-03-17T13:00:18.589Z,18.09
2019-03-17T13:03:26.777Z,18.20
2019-03-17T13:06:34.440Z,18.16
2019-03-17T13:09:42.419Z,18.25
2019-03-17T13:12:50.964Z,18.23
2019-03-17T13:19:07.230Z,18.29
2019-03-17T13:22:14.872Z,18.39
2019-03-17T13:25:22.884Z,18.11
2019-03-17T13:28:30.084Z,18.16
2019-03-17T13:31:40.005Z,18.34
2019-03-17T13:34:47.465Z,18.51
2019-03-17T13:37:55.878Z,18.58
2019-03-17T13:41:03.957Z,18.59
2019-03-17T13:44:12.127Z,18.65
2019-03-17T13:47:19.499Z,18.63
2019-03-17T13:50:27.374Z,18.69
2019-03-17T13:53:35.745Z,18.36
2019-03-17T13:56:43.860Z,18.27
2019-03-17T13:59:51.552Z,18.38
2019-03-17T14:02:59.139Z,18.41
2019-03-17T14:06:06.653Z,18.42
2019-03-17T14:09:14.813Z,18.34
2019-03-17T14:12:22.235Z,18.24
2019-03-17T14:15:29.990Z,18.27
2019-03-17T14:18:38.184Z,18.31
2019-03-17T14:21:45.520Z,18.38
2019-03-17T14:24:53.933Z,18.41
2019-03-17T14:28:01.811Z,18.29
2019-03-17T14:31:10.384Z,18.40
2019-03-17T14:34:18.724Z,18.38
2019-03-17T14:37:29.324Z,18.34
2019-03-17T14:40:38.354Z,18.28
2019-03-17T14:43:47.019Z,18.33
2019-03-17T14:46:54.593Z,18.25
2019-03-17T14:50:03.155Z,18.17
2019-03-17T14:53:10.994Z,18.09
2019-03-17T14:56:19.043Z,17.99
2019-03-17T14:59:27.739Z,17.86
2019-03-17T15:02:36.638Z,17.74
2019-03-17T15:05:44.985Z,17.45
2019-03-17T15:08:52.743Z,17.08
2019-03-17T15:12:00.441Z,16.98
2019-03-17T15:15:11.120Z,16.93
2019-03-17T15:18:19.066Z,16.88
2019-03-17T15:21:27.136Z,16.74
2019-03-17T15:24:35.259Z,16.62
2019-03-17T15:27:43.479Z,16.56
2019-03-17T15:31:05.754Z,16.44
2019-03-17T15:34:00.615Z,16.45
2019-03-17T15:37:08.169Z,16.33
2019-03-17T15:40:15.887Z,16.32
2019-03-17T15:43:23.567Z,16.35
2019-03-17T15:46:31.272Z,16.31
2019-03-17T15:49:39.326Z,16.11
2019-03-17T15:52:47.519Z,16.01
2019-03-17T15:55:55.280Z,16.01
2019-03-17T15:59:03.093Z,16.08
2019-03-17T16:02:10.812Z,16.21
2019-03-17T16:05:20.509Z,16.19
2019-03-17T16:08:28.180Z,15.96
2019-03-17T16:11:36.534Z,15.87
2019-03-17T16:14:44.280Z,15.56
2019-03-17T16:17:52.256Z,15.35
2019-03-17T16:20:59.962Z,15.35
2019-03-17T16:24:07.821Z,15.20
2019-03-17T16:27:16.404Z,15.06
2019-03-17T16:30:24.250Z,15.01
2019-03-17T16:33:31.504Z,14.98
2019-03-17T16:36:39.470Z,14.87
2019-03-17T16:39:47.448Z,14.78
2019-03-17T16:42:55.271Z,14.61
2019-03-17T16:46:02.727Z,14.59
2019-03-17T16:49:10.488Z,14.47
2019-03-17T16:52:17.792Z,14.39
2019-03-17T16:55:25.262Z,14.26
2019-03-17T16:58:33.079Z,14.31
2019-03-17T17:01:40.343Z,14.21
2019-03-17T17:04:48.106Z,14.10
2019-03-17T17:07:55.972Z,13.95
2019-03-17T17:11:04.562Z,13.87
2019-03-17T17:14:12.383Z,12.66
2019-03-17T17:17:20.104Z,11.80
2019-03-17T17:20:28.212Z,11.57
2019-03-17T17:23:36.269Z,11.45
2019-03-17T17:26:43.944Z,11.08
2019-03-17T17:29:52.934Z,9.53
2019-03-17T17:33:01.028Z,8.72
2019-03-17T17:36:08.555Z,7.99
2019-03-17T17:39:16.199Z,7.48
2019-03-17T17:42:25.726Z,7.12
2019-03-17T17:45:33.302Z,6.81
2019-03-17T17:48:41.300Z,6.63
2019-03-17T17:51:48.731Z,6.56
2019-03-17T17:54:56.783Z,6.32
2019-03-17T17:58:04.530Z,6.24
2019-03-17T18:01:12.778Z,5.93
2019-03-17T18:04:20.363Z,5.66
2019-03-17T18:07:27.834Z,5.40
2019-03-17T18:10:35.474Z,5.32
2019-03-17T18:13:42.628Z,5.27
2019-03-17T18:16:50.739Z,5.23
2019-03-17T18:19:58.617Z,5.35
2019-03-17T18:23:17.340Z,5.21
2019-03-17T18:26:16.312Z,5.24
2019-03-17T18:29:24.322Z,5.14
2019-03-17T18:32:32.006Z,4.97
2019-03-17T18:35:40.113Z,4.84
2019-03-17T18:38:48.428Z,4.82
2019-03-17T18:41:56.033Z,4.72
2019-03-17T18:45:04.545Z,4.69
2019-03-17T18:48:12.399Z,4.55
2019-03-17T18:51:20.933Z,4.59
2019-03-17T18:54:28.373Z,4.59
2019-03-17T18:57:37.499Z,4.40
2019-03-17T19:00:45.394Z,4.46
2019-03-17T19:03:53.227Z,4.32
2019-03-17T19:07:01.150Z,4.38
2019-03-17T19:10:09.214Z,4.47
2019-03-17T19:13:16.733Z,4.40
2019-03-17T19:16:24.730Z,4.20
2019-03-17T19:19:32.586Z,4.34
2019-03-17T19:22:40.129Z,4.41
2019-03-17T19:25:47.721Z,4.40
2019-03-17T19:28:55.034Z,4.27
2019-03-17T19:32:02.299Z,4.32
2019-03-17T19:35:10.126Z,4.35
2019-03-17T19:38:17.734Z,4.36
2019-03-17T19:41:25.512Z,4.18
2019-03-17T19:44:33.119Z,4.10
2019-03-17T19:47:40.793Z,4.10
2019-03-17T19:50:48.991Z,4.03
2019-03-17T19:53:56.923Z,4.13
2019-03-17T19:57:05.405Z,3.99
2019-03-17T20:00:14.568Z,3.89
2019-03-17T20:03:22.391Z,4.09
2019-03-17T20:06:30.828Z,4.11
2019-03-17T20:09:38.769Z,4.11
2019-03-17T20:12:46.763Z,4.14
2019-03-17T20:15:53.988Z,4.18
2019-03-17T20:19:02.731Z,4.16
2019-03-17T20:22:10.460Z,4.09
2019-03-17T20:25:18.597Z,4.18
2019-03-17T20:28:26.059Z,4.23
2019-03-17T20:31:33.913Z,4.30
2019-03-17T20:34:42.578Z,4.27
2019-03-17T20:37:50.367Z,4.34
2019-03-17T20:40:58.007Z,4.17
2019-03-17T20:44:05.716Z,4.22
2019-03-17T20:47:13.376Z,4.36
2019-03-17T20:50:21.195Z,4.44
2019-03-17T20:53:28.704Z,4.41
2019-03-17T20:56:36.377Z,4.35
2019-03-17T20:59:44.433Z,4.32
2019-03-17T21:02:52.736Z,4.23
2019-03-17T21:06:00.925Z,4.31
2019-03-17T21:09:08.416Z,4.36
2019-03-17T21:12:16.671Z,4.40
2019-03-17T21:15:24.971Z,4.23
2019-03-17T21:18:32.440Z,4.31
2019-03-17T21:21:40.349Z,4.18
2019-03-17T21:24:48.378Z,4.23
2019-03-17T21:27:55.943Z,4.20
2019-03-17T21:31:04.176Z,4.15
2019-03-17T21:34:12.681Z,4.07
2019-03-17T21:37:20.487Z,4.19
2019-03-17T21:40:28.266Z,3.98
2019-03-17T21:43:36.271Z,3.96
2019-03-17T21:46:43.715Z,3.89
2019-03-17T21:49:51.224Z,3.93
2019-03-17T21:52:59.236Z,3.84
2019-03-17T21:56:06.579Z,3.88
2019-03-17T21:59:14.482Z,3.86
2019-03-17T22:02:21.900Z,3.96
2019-03-17T22:05:30.263Z,3.87
2019-03-17T22:08:38.023Z,3.83
2019-03-17T22:11:46.018Z,3.98
2019-03-17T22:14:53.214Z,3.84
2019-03-17T22:18:00.742Z,3.82
2019-03-17T22:21:08.101Z,3.98
2019-03-17T22:24:15.507Z,3.78
2019-03-17T22:27:23.187Z,3.71
2019-03-17T22:30:31.020Z,3.80
2019-03-17T22:33:38.948Z,3.80
2019-03-17T22:36:46.726Z,3.80
2019-03-17T22:39:54.403Z,3.81
2019-03-17T22:43:02.026Z,3.81
2019-03-17T22:46:09.563Z,4.00
2019-03-17T22:49:16.983Z,3.95
2019-03-17T22:52:24.208Z,3.92
2019-03-17T22:55:31.417Z,3.94
2019-03-17T22:58:39.274Z,3.87
2019-03-17T23:01:47.079Z,3.80
2019-03-17T23:04:54.901Z,3.78
2019-03-17T23:08:02.649Z,3.85
2019-03-17T23:11:10.311Z,3.83
2019-03-17T23:14:17.806Z,3.82
2019-03-17T23:17:25.287Z,3.85
2019-03-17T23:20:32.465Z,3.72
2019-03-17T23:23:40.346Z,3.80
2019-03-17T23:26:47.482Z,3.50
2019-03-17T23:29:54.932Z,3.63
2019-03-17T23:33:02.441Z,3.23
2019-03-17T23:36:10.048Z,2.69
2019-03-17T23:39:37.744Z,2.15
2019-03-17T23:42:45.713Z,1.87
2019-03-17T23:45:53.203Z,1.85
2019-03-17T23:49:01.482Z,1.98
2019-03-17T23:52:09.796Z,2.07
2019-03-17T23:55:17.880Z,2.08
2019-03-17T23:58:25.690Z,2.06
